Time;durP1;ratioP1;P1;durP2;ratioP2;P2;SDS_P1;SDS_P2;PMS_P1;PMS_P2;Temp;Humidity;BMP_temperature;BMP_pressure;BME280_temperature;BME280_humidity;BME280_pressure;Samples;Min_cycle;Max_cycle;Signal;HPM_P1;HPM_P2
2022/06/13 00:02:07;;;;;;;6.57;3.83;;;19.20;99.90;;;;;;4796981;30;20038;-81
2022/06/13 00:04:35;;;;;;;7.68;3.92;;;19.40;99.80;;;;;;4796005;30;20024;-83
2022/06/13 00:07:01;;;;;;;7.90;4.35;;;19.50;99.50;;;;;;4797262;30;20035;-86
2022/06/13 00:09:27;;;;;;;8.57;3.92;;;19.70;99.20;;;;;;4794281;30;20475;-82
2022/06/13 00:11:53;;;;;;;7.85;3.80;;;19.80;98.90;;;;;;4796527;30;20031;-83
2022/06/13 00:14:21;;;;;;;7.93;3.90;;;20.30;98.80;;;;;;4797682;30;20039;-82
2022/06/13 00:16:46;;;;;;;7.75;4.15;;;20.00;98.50;;;;;;4795587;30;20036;-82
2022/06/13 00:19:12;;;;;;;8.20;3.90;;;20.10;98.30;;;;;;4795781;30;20035;-81
2022/06/13 00:21:38;;;;;;;8.07;4.18;;;20.20;98.10;;;;;;4793739;30;20155;-83
2022/06/13 00:24:07;;;;;;;8.13;4.15;;;20.10;98.20;;;;;;4793420;30;20047;-88
2022/06/13 00:26:37;;;;;;;7.90;3.92;;;20.10;98.10;;;;;;4795783;30;20070;-83
2022/06/13 00:29:04;;;;;;;7.25;3.70;;;20.20;98.10;;;;;;4795344;30;20031;-82
2022/06/13 00:31:30;;;;;;;7.55;4.10;;;20.20;98.00;;;;;;4794858;30;20709;-82
2022/06/13 00:33:57;;;;;;;6.85;3.53;;;20.20;98.10;;;;;;4795555;30;20032;-85
2022/06/13 00:36:25;;;;;;;8.73;4.05;;;20.20;98.00;;;;;;4796475;30;20132;-85
2022/06/13 00:38:55;;;;;;;6.93;3.92;;;20.20;97.90;;;;;;4795536;30;20531;-80
2022/06/13 00:41:42;;;;;;;12.13;4.63;;;20.30;97.70;;;;;;4798098;30;20031;-80
2022/06/13 00:44:33;;;;;;;10.52;4.65;;;20.30;97.60;;;;;;4796700;30;20034;-84
2022/06/13 00:46:59;;;;;;;9.02;4.70;;;20.20;97.70;;;;;;4796606;29;20019;-83
2022/06/13 00:49:41;;;;;;;10.38;4.05;;;20.10;97.80;;;;;;4795599;30;20032;-80
2022/06/13 00:52:35;;;;;;;10.15;5.45;;;20.20;97.80;;;;;;4795846;30;20126;-80
2022/06/13 00:55:03;;;;;;;9.73;5.38;;;21.30;98.00;;;;;;4797622;29;20023;-83
2022/06/13 00:57:32;;;;;;;10.70;5.55;;;20.20;97.70;;;;;;4795172;30;20189;-84
2022/06/13 01:00:03;;;;;;;13.85;6.15;;;20.30;97.60;;;;;;4795567;30;20038;-82
2022/06/13 01:02:30;;;;;;;11.10;5.40;;;20.30;97.60;;;;;;4792107;30;20043;-84
2022/06/13 01:04:59;;;;;;;10.45;5.22;;;20.20;97.60;;;;;;4788675;30;20366;-88
2022/06/13 01:07:28;;;;;;;10.65;5.25;;;20.20;97.60;;;;;;4791627;30;20031;-87
2022/06/13 01:12:45;;;;;;;8.38;4.47;;;19.90;97.70;;;;;;4794354;30;20050;-82
2022/06/13 01:15:47;;;;;;;10.68;5.53;;;20.10;97.80;;;;;;4777962;30;20023;-81
2022/06/13 01:18:43;;;;;;;11.23;5.15;;;20.20;97.70;;;;;;4793963;30;20039;-90
2022/06/13 01:21:34;;;;;;;10.02;5.15;;;20.20;97.60;;;;;;4754544;30;20123;-89
2022/06/13 01:24:37;;;;;;;10.40;4.47;;;20.20;97.50;;;;;;4704381;30;20041;-87
2022/06/13 01:27:15;;;;;;;8.30;4.60;;;20.20;97.60;;;;;;4717839;30;20038;-84
2022/06/13 01:29:50;;;;;;;8.23;4.97;;;20.20;97.60;;;;;;4719215;30;20041;-81
2022/06/13 01:32:37;;;;;;;9.60;4.80;;;20.20;97.90;;;;;;4720228;30;20080;-81
2022/06/13 01:35:40;;;;;;;11.50;4.78;;;20.00;97.90;;;;;;4720305;30;20104;-84
2022/06/13 01:38:39;;;;;;;8.63;5.20;;;20.00;97.90;;;;;;4722314;30;20052;-82
2022/06/13 01:41:32;;;;;;;8.02;4.20;;;19.80;98.20;;;;;;4720982;30;20390;-80
2022/06/13 01:44:20;;;;;;;10.13;5.15;;;19.80;98.20;;;;;;4724433;30;20332;-80
2022/06/13 01:47:08;;;;;;;8.45;5.10;;;19.90;98.20;;;;;;4724226;30;20070;-84
2022/06/13 01:50:04;;;;;;;7.72;4.38;;;19.90;98.10;;;;;;4724397;30;20065;-79
2022/06/13 01:52:55;;;;;;;9.95;4.63;;;20.00;98.10;;;;;;4673917;30;20079;-79
2022/06/13 01:55:24;;;;;;;9.75;4.85;;;19.90;98.10;;;;;;4670728;30;20142;-81
2022/06/13 01:58:28;;;;;;;8.82;4.80;;;19.80;98.10;;;;;;4659431;30;20308;-80
2022/06/13 02:01:03;;;;;;;;;;;19.70;98.30;;;;;;4683399;30;20037;-85
2022/06/13 02:03:35;;;;;;;11.15;4.60;;;19.70;98.30;;;;;;4733125;30;19914;-80
2022/06/13 02:06:22;;;;;;;8.75;4.53;;;19.30;98.80;;;;;;4732843;30;20062;-86
2022/06/13 02:09:03;;;;;;;8.75;4.40;;;19.40;98.80;;;;;;4734430;30;20035;-83
2022/06/13 02:11:38;;;;;;;7.97;4.38;;;19.50;98.80;;;;;;4735850;30;20029;-84
2022/06/13 02:14:09;;;;;;;9.10;4.32;;;19.60;98.50;;;;;;4735037;30;20682;-83
2022/06/13 02:17:02;;;;;;;7.53;4.53;;;19.30;99.00;;;;;;4716305;30;20059;-82
2022/06/13 02:19:34;;;;;;;9.00;4.60;;;19.00;99.80;;;;;;4733819;30;20128;-82
2022/06/13 02:22:07;;;;;;;8.43;4.32;;;19.10;99.50;;;;;;4720167;30;20048;-84
2022/06/13 02:24:40;;;;;;;10.98;5.13;;;19.20;99.30;;;;;;4716074;30;20039;-80
2022/06/13 02:27:09;;;;;;;8.60;4.10;;;19.30;99.30;;;;;;4726867;30;20040;-81
2022/06/13 02:29:49;;;;;;;9.50;4.03;;;19.30;99.10;;;;;;4764335;30;20185;-80
2022/06/13 02:32:31;;;;;;;9.55;4.20;;;19.30;99.20;;;;;;4787958;30;20069;-86
2022/06/13 02:35:06;;;;;;;7.83;4.47;;;19.30;99.00;;;;;;4774263;30;20038;-83
2022/06/13 02:37:42;;;;;;;7.70;3.92;;;19.40;99.10;;;;;;4774553;30;20040;-87
2022/06/13 02:40:25;;;;;;;7.95;3.95;;;19.50;98.80;;;;;;4779558;30;20034;-79
2022/06/13 02:42:58;;;;;;;7.95;4.07;;;19.30;98.70;;;;;;4781728;30;20082;-82
2022/06/13 02:45:32;;;;;;;7.13;3.65;;;19.40;98.80;;;;;;4789150;30;20027;-83
2022/06/13 02:47:58;;;;;;;8.07;4.00;;;19.50;98.50;;;;;;4790427;30;20027;-81
2022/06/13 02:50:36;;;;;;;8.13;3.85;;;19.50;98.40;;;;;;4788211;30;20095;-85
2022/06/13 02:53:02;;;;;;;7.60;4.78;;;19.50;98.40;;;;;;4787927;30;20084;-82
2022/06/13 02:55:40;;;;;;;7.10;4.05;;;19.50;98.60;;;;;;4784483;30;20039;-84
2022/06/13 02:58:31;;;;;;;7.30;3.95;;;19.60;98.50;;;;;;4783606;30;20035;-85
2022/06/13 03:01:14;;;;;;;7.80;3.55;;;19.70;98.10;;;;;;4786563;30;20504;-81
2022/06/13 03:04:04;;;;;;;7.45;3.47;;;19.70;98.30;;;;;;4784343;30;20248;-85
2022/06/13 03:06:57;;;;;;;6.90;4.03;;;19.70;98.10;;;;;;4786628;30;20059;-87
2022/06/13 03:09:46;;;;;;;7.10;4.00;;;19.60;97.80;;;;;;4790400;30;20023;-84
2022/06/13 03:12:28;;;;;;;7.32;3.75;;;19.60;98.20;;;;;;4789998;30;20110;-83
2022/06/13 03:15:03;;;;;;;8.77;4.40;;;19.60;98.30;;;;;;4790198;30;20023;-82
2022/06/13 03:17:46;;;;;;;7.32;4.10;;;19.50;98.30;;;;;;4788928;29;20364;-90
2022/06/13 03:20:41;;;;;;;6.73;3.23;;;19.60;98.20;;;;;;4793260;30;20031;-90
2022/06/13 03:23:34;;;;;;;6.40;3.50;;;19.60;97.90;;;;;;4793710;30;20651;-80
2022/06/13 03:26:08;;;;;;;6.50;3.83;;;19.60;98.10;;;;;;4793102;30;20035;-91
2022/06/13 03:28:58;;;;;;;7.18;3.90;;;19.70;97.90;;;;;;4793522;29;20038;-91
2022/06/13 03:31:30;;;;;;;7.25;4.05;;;19.60;97.80;;;;;;4792742;29;20079;-82
2022/06/13 03:34:03;;;;;;;7.75;4.13;;;19.40;98.30;;;;;;4794663;29;20038;-86
2022/06/13 03:36:48;;;;;;;7.78;4.35;;;19.40;98.40;;;;;;4795762;30;20051;-87
2022/06/13 03:39:30;;;;;;;7.40;3.80;;;19.50;98.30;;;;;;4796606;30;20047;-90
2022/06/13 03:42:01;;;;;;;6.95;3.70;;;19.10;98.00;;;;;;4779463;30;20039;-91
2022/06/13 03:44:52;;;;;;;7.35;3.75;;;19.30;98.30;;;;;;4791740;30;20035;-80
2022/06/13 03:47:26;;;;;;;9.63;3.75;;;19.40;98.00;;;;;;4792754;30;20023;-82
2022/06/13 03:50:18;;;;;;;10.90;3.83;;;19.20;98.40;;;;;;4793716;30;20554;-82
2022/06/13 03:52:49;;;;;;;8.02;3.83;;;19.20;98.60;;;;;;4789621;30;20035;-79
2022/06/13 03:55:25;;;;;;;6.75;3.85;;;19.30;98.50;;;;;;4798167;30;20096;-81
2022/06/13 03:58:14;;;;;;;8.23;4.38;;;19.40;98.50;;;;;;4800326;30;20107;-81
2022/06/13 04:01:04;;;;;;;7.75;3.67;;;19.30;98.10;;;;;;4800535;29;20043;-81
2022/06/13 04:03:47;;;;;;;10.20;4.50;;;19.30;98.40;;;;;;4795354;30;20031;-80
2022/06/13 04:06:31;;;;;;;7.40;3.65;;;19.20;98.50;;;;;;4794094;30;20037;-80
2022/06/13 04:09:29;;;;;;;7.38;3.97;;;19.20;98.70;;;;;;4796816;30;20027;-80
2022/06/13 04:13:02;;;;;;;6.43;3.47;;;19.40;98.20;;;;;;4793799;30;20027;-81
2022/06/13 04:15:59;;;;;;;6.47;3.58;;;19.50;98.00;;;;;;4723737;30;20060;-82
2022/06/13 04:18:53;;;;;;;9.60;4.32;;;19.60;97.80;;;;;;4674979;30;20046;-80
2022/06/13 04:21:50;;;;;;;8.70;3.72;;;19.60;97.80;;;;;;4673963;30;20125;-81
2022/06/13 04:24:40;;;;;;;7.10;3.78;;;19.60;97.60;;;;;;4674659;30;20042;-81
2022/06/13 04:27:21;;;;;;;10.75;4.53;;;19.70;97.60;;;;;;4673475;30;20523;-82
2022/06/13 04:30:01;;;;;;;8.27;4.25;;;19.70;97.40;;;;;;4663290;30;20053;-84
2022/06/13 04:32:51;;;;;;;6.70;3.67;;;19.80;97.30;;;;;;4670283;30;20047;-84
2022/06/13 04:35:18;;;;;;;7.50;3.70;;;19.90;97.20;;;;;;4668765;30;20046;-83
2022/06/13 04:37:49;;;;;;;6.13;3.28;;;19.90;97.10;;;;;;4668168;30;20043;-80
2022/06/13 04:40:38;;;;;;;9.43;4.28;;;20.00;97.00;;;;;;4670659;30;20038;-94
2022/06/13 04:43:12;;;;;;;6.70;3.83;;;17.00;96.10;;;;;;4673913;30;20052;-85
2022/06/13 04:45:48;;;;;;;7.85;4.18;;;20.10;96.80;;;;;;4668717;30;20300;-84
2022/06/13 04:48:18;;;;;;;6.43;3.30;;;19.90;96.60;;;;;;4647218;30;20105;-81
2022/06/13 04:50:50;;;;;;;7.43;3.58;;;19.90;97.20;;;;;;4673897;30;20310;-81
2022/06/13 04:53:33;;;;;;;6.13;3.22;;;20.00;97.10;;;;;;4721135;30;20036;-81
2022/06/13 04:55:59;;;;;;;6.15;3.55;;;20.00;97.00;;;;;;4778164;30;20047;-88
2022/06/13 04:58:30;;;;;;;7.22;3.55;;;20.10;96.80;;;;;;4792491;30;20047;-82
2022/06/13 05:01:13;;;;;;;8.48;3.63;;;20.10;96.80;;;;;;4792221;30;20024;-87
2022/06/13 05:03:42;;;;;;;10.45;4.18;;;20.20;96.70;;;;;;4788351;30;20027;-88
2022/06/13 05:06:20;;;;;;;5.45;2.97;;;20.30;96.50;;;;;;4788816;30;20031;-82
2022/06/13 05:08:56;;;;;;;8.02;3.83;;;20.30;96.40;;;;;;4788672;30;20031;-84
2022/06/13 05:11:28;;;;;;;6.32;3.50;;;20.20;96.80;;;;;;4790331;30;20026;-82
2022/06/13 05:14:01;;;;;;;6.82;3.75;;;20.10;96.90;;;;;;4787717;30;20031;-81
2022/06/13 05:16:51;;;;;;;8.02;4.63;;;20.10;96.80;;;;;;4784354;30;20039;-81
2022/06/13 05:19:17;;;;;;;5.90;3.45;;;19.60;97.20;;;;;;4785232;30;20050;-89
2022/06/13 05:22:08;;;;;;;7.35;3.75;;;19.70;97.70;;;;;;4785086;30;20059;-83
2022/06/13 05:25:27;;;;;;;7.03;3.80;;;19.70;97.50;;;;;;4792678;30;20036;-81
2022/06/13 05:27:54;;;;;;;6.80;4.18;;;19.90;97.30;;;;;;4791686;30;20073;-83
2022/06/13 05:30:21;;;;;;;6.53;3.75;;;19.90;97.70;;;;;;4777754;30;20069;-88
2022/06/13 05:32:50;;;;;;;6.15;3.40;;;19.90;97.50;;;;;;4777194;30;20023;-81
2022/06/13 05:35:29;;;;;;;7.40;4.15;;;19.90;97.60;;;;;;4777746;30;20116;-86
2022/06/13 05:37:56;;;;;;;8.93;3.80;;;20.00;97.40;;;;;;4764458;30;20039;-79
2022/06/13 05:40:23;;;;;;;9.00;4.40;;;20.30;97.00;;;;;;4778433;29;20050;-80
2022/06/13 05:42:49;;;;;;;6.88;3.70;;;20.30;96.70;;;;;;4777983;30;20062;-80
2022/06/13 05:45:19;;;;;;;9.85;5.45;;;20.30;96.80;;;;;;4775889;30;20035;-84
2022/06/13 05:47:47;;;;;;;9.00;4.50;;;19.80;97.40;;;;;;4774774;30;20119;-86
2022/06/13 05:50:19;;;;;;;11.10;6.82;;;19.90;97.50;;;;;;4775920;30;20023;-80
2022/06/13 05:52:45;;;;;;;7.97;4.00;;;19.30;98.30;;;;;;4775046;30;20075;-82
2022/06/13 05:55:13;;;;;;;8.32;4.20;;;19.10;99.30;;;;;;4777382;30;20096;-80
2022/06/13 05:57:39;;;;;;;10.38;4.90;;;19.30;99.10;;;;;;4777783;30;20035;-88
2022/06/13 06:00:14;;;;;;;9.77;5.57;;;19.30;99.00;;;;;;4780650;30;20095;-86
2022/06/13 06:02:41;;;;;;;7.07;4.53;;;19.40;99.00;;;;;;4778362;30;20703;-82
2022/06/13 06:05:07;;;;;;;8.38;4.32;;;19.60;98.70;;;;;;4779335;30;20624;-86
2022/06/13 06:07:33;;;;;;;7.55;4.22;;;19.60;98.40;;;;;;4788818;30;20261;-83
2022/06/13 06:10:00;;;;;;;8.85;4.88;;;19.80;98.50;;;;;;4784298;30;20683;-92
2022/06/13 06:12:27;;;;;;;10.27;4.57;;;20.00;97.70;;;;;;4791568;30;20115;-82
2022/06/13 06:14:53;;;;;;;17.20;5.82;;;20.20;97.70;;;;;;4785164;30;20124;-82
2022/06/13 06:17:19;;;;;;;9.15;5.25;;;20.20;97.10;;;;;;4780495;30;20063;-86
2022/06/13 06:19:45;;;;;;;7.32;4.47;;;20.20;97.40;;;;;;4783624;30;20027;-79
2022/06/13 06:22:11;;;;;;;9.95;5.50;;;20.30;97.20;;;;;;4787322;30;20046;-83
2022/06/13 06:24:36;;;;;;;10.10;5.47;;;20.30;97.40;;;;;;4776763;30;20035;-90
2022/06/13 06:27:02;;;;;;;8.73;4.32;;;20.40;97.40;;;;;;4783599;30;20023;-79
2022/06/13 06:29:47;;;;;;;9.75;4.22;;;20.50;97.10;;;;;;4802359;30;20667;-78
2022/06/13 06:32:13;;;;;;;8.57;4.88;;;20.50;97.00;;;;;;4776674;30;20034;-84
2022/06/13 06:34:50;;;;;;;9.35;5.35;;;20.60;96.80;;;;;;4794152;30;20023;-90
2022/06/13 06:37:22;;;;;;;8.18;4.55;;;20.60;96.90;;;;;;4792174;30;20059;-90
2022/06/13 06:39:54;;;;;;;13.75;5.95;;;20.80;96.90;;;;;;4785321;30;20026;-92
2022/06/13 06:42:20;;;;;;;7.97;4.85;;;20.70;97.30;;;;;;4788944;30;20084;-85
2022/06/13 06:44:45;;;;;;;8.82;3.90;;;20.90;96.60;;;;;;4790183;30;20031;-93
2022/06/13 06:47:11;;;;;;;11.35;5.25;;;20.80;96.60;;;;;;4797195;30;20035;-90
2022/06/13 06:49:40;;;;;;;10.88;6.43;;;21.00;96.20;;;;;;4794341;30;20594;-83
2022/06/13 06:52:07;;;;;;;10.57;4.93;;;21.00;96.80;;;;;;4782995;30;20020;-89
2022/06/13 07:00:07;;;;;;;9.50;4.85;;;21.20;95.90;;;;;;4792672;30;20042;-86
2022/06/13 07:02:48;;;;;;;10.68;5.88;;;21.10;95.90;;;;;;4795194;30;20026;-83
2022/06/13 07:05:14;;;;;;;11.43;6.88;;;21.20;96.10;;;;;;4778443;30;20035;-80
2022/06/13 07:08:11;;;;;;;9.45;5.95;;;21.00;96.20;;;;;;4793846;30;20610;-84
2022/06/13 07:10:49;;;;;;;9.80;5.88;;;21.10;95.80;;;;;;4802503;29;20035;-82
2022/06/13 07:13:20;;;;;;;10.68;5.53;;;21.40;95.30;;;;;;4801848;29;20050;-81
2022/06/13 07:16:16;;;;;;;9.65;6.22;;;21.20;95.10;;;;;;4801505;30;20046;-81
2022/06/13 07:18:45;;;;;;;9.23;4.97;;;;;;;;;;4822168;24;20154;-81
2022/06/13 07:21:11;;;;;;;9.60;5.78;;;;;;;;;;4793012;29;20055;-82
2022/06/13 07:23:38;;;;;;;10.32;6.38;;;21.40;94.40;;;;;;4800820;30;20047;-88
2022/06/13 07:26:07;;;;;;;9.35;5.07;;;21.30;94.90;;;;;;4796166;30;20016;-83
2022/06/13 07:28:41;;;;;;;11.85;6.43;;;21.30;95.50;;;;;;4795720;30;20027;-82
2022/06/13 07:31:31;;;;;;;10.32;6.43;;;21.60;94.50;;;;;;4796522;30;20019;-82
2022/06/13 07:34:06;;;;;;;11.90;6.72;;;21.60;94.70;;;;;;4797343;30;20686;-83
2022/06/13 07:36:32;;;;;;;11.15;6.82;;;21.70;95.00;;;;;;4797070;29;20023;-86
2022/06/13 07:39:11;;;;;;;12.90;6.20;;;21.80;95.10;;;;;;4796607;30;20039;-82
2022/06/13 07:41:40;;;;;;;11.15;6.40;;;22.00;94.70;;;;;;4788872;30;20034;-82
2022/06/13 07:44:07;;;;;;;8.10;4.28;;;22.00;94.80;;;;;;4792540;30;20083;-89
2022/06/13 07:46:33;;;;;;;10.13;5.60;;;22.20;94.30;;;;;;4786353;30;20730;-83
2022/06/13 07:49:01;;;;;;;9.57;5.88;;;22.20;94.50;;;;;;4779022;30;20555;-95
2022/06/13 07:51:27;;;;;;;9.40;5.15;;;22.30;94.10;;;;;;4785621;30;20035;-88
2022/06/13 07:53:56;;;;;;;10.23;5.25;;;22.30;93.70;;;;;;4780947;30;20023;-94
2022/06/13 07:56:39;;;;;;;9.63;5.55;;;22.30;93.70;;;;;;4788378;30;20087;-87
2022/06/13 07:59:05;;;;;;;7.65;4.78;;;23.20;94.10;;;;;;4792182;30;20142;-93
2022/06/13 08:01:32;;;;;;;8.90;5.03;;;;;;;;;;4795806;30;20012;-80
2022/06/13 08:04:00;;;;;;;8.35;4.40;;;20.90;91.30;;;;;;4801676;29;20035;-84
2022/06/13 08:06:27;;;;;;;8.90;5.35;;;22.70;92.40;;;;;;4802415;30;20114;-80
2022/06/13 08:08:54;;;;;;;9.80;5.32;;;22.90;92.60;;;;;;4805766;30;20023;-94
2022/06/13 08:11:46;;;;;;;9.02;4.78;;;23.00;92.20;;;;;;4803523;30;20027;-80
2022/06/13 08:14:18;;;;;;;9.07;5.88;;;23.00;92.00;;;;;;4799442;30;20027;-89
2022/06/13 08:16:47;;;;;;;10.75;6.18;;;23.30;92.50;;;;;;4804017;30;20022;-89
2022/06/13 08:19:19;;;;;;;10.23;6.65;;;23.30;92.50;;;;;;4797332;30;20050;-82
2022/06/13 08:21:46;;;;;;;11.55;6.13;;;;;;;;;;4799565;30;20031;-84
2022/06/13 08:24:14;;;;;;;9.95;6.43;;;23.50;91.80;;;;;;4789740;30;20039;-79
2022/06/13 08:26:42;;;;;;;10.43;5.82;;;;;;;;;;4780399;30;20036;-83
2022/06/13 08:29:08;;;;;;;9.13;5.55;;;23.60;91.00;;;;;;4783702;30;20373;-95
2022/06/13 08:31:41;;;;;;;9.32;5.72;;;23.60;91.30;;;;;;4787292;30;20169;-93
2022/06/13 08:34:31;;;;;;;9.18;5.50;;;23.70;90.90;;;;;;4793794;30;20039;-85
2022/06/13 08:37:03;;;;;;;9.60;5.68;;;23.80;90.80;;;;;;4793472;30;20091;-80
2022/06/13 08:39:29;;;;;;;8.70;5.05;;;23.80;90.50;;;;;;4792883;30;20708;-88
2022/06/13 08:42:51;;;;;;;10.05;5.38;;;23.80;90.60;;;;;;4790004;30;20098;-83
2022/06/13 08:45:47;;;;;;;11.38;5.35;;;24.10;89.20;;;;;;4725610;30;20095;-85
2022/06/13 08:48:44;;;;;;;8.05;4.75;;;24.10;89.70;;;;;;4725947;30;20058;-91
2022/06/13 08:51:35;;;;;;;10.25;5.10;;;24.20;89.40;;;;;;4721771;30;20035;-86
2022/06/13 08:54:10;;;;;;;8.73;4.25;;;24.30;89.20;;;;;;4724360;30;20662;-79
2022/06/13 08:56:46;;;;;;;7.13;4.10;;;24.20;88.00;;;;;;4725913;30;20045;-82
2022/06/13 08:59:34;;;;;;;8.95;4.82;;;24.40;88.20;;;;;;4710074;30;20041;-90
2022/06/13 09:02:14;;;;;;;8.02;4.63;;;24.50;87.00;;;;;;4728751;30;20037;-96
2022/06/13 09:05:28;;;;;;;8.75;5.40;;;24.60;86.50;;;;;;4727819;30;20080;-82
2022/06/13 09:08:32;;;;;;;9.53;4.73;;;25.30;86.80;;;;;;4651226;30;20093;-83
2022/06/13 09:11:08;;;;;;;9.98;5.15;;;22.40;83.70;;;;;;4651822;30;20106;-96
2022/06/13 09:13:54;;;;;;;7.88;4.55;;;24.90;85.20;;;;;;4641548;30;20035;-89
2022/06/13 09:16:48;;;;;;;7.78;4.50;;;25.10;85.20;;;;;;4638195;30;20038;-96
2022/06/13 09:19:27;;;;;;;10.00;4.60;;;25.20;84.50;;;;;;4642357;30;20162;-96
2022/06/13 09:22:21;;;;;;;6.57;3.85;;;25.20;84.60;;;;;;4696583;30;20089;-94
2022/06/13 09:25:06;;;;;;;10.50;5.10;;;25.30;84.20;;;;;;4644763;30;20097;-90
2022/06/13 09:27:41;;;;;;;8.25;4.47;;;25.60;84.60;;;;;;4639908;30;20027;-87
2022/06/13 09:30:26;;;;;;;10.95;4.90;;;25.70;83.10;;;;;;4641181;30;20043;-92
2022/06/13 09:33:14;;;;;;;8.25;4.88;;;25.70;82.30;;;;;;4635144;30;20035;-92
2022/06/13 09:35:58;;;;;;;8.05;4.95;;;25.70;82.50;;;;;;4650524;30;20073;-87
2022/06/13 09:44:09;;;;;;;8.27;4.85;;;25.80;81.90;;;;;;4851460;24;19925;-84
2022/06/13 09:46:59;;;;;;;7.35;4.38;;;25.50;81.30;;;;;;4830677;24;20071;-89
2022/06/13 09:49:49;;;;;;;7.78;4.35;;;26.00;80.90;;;;;;4790492;30;20095;-85
2022/06/13 09:53:09;;;;;;;8.68;5.47;;;26.40;81.10;;;;;;4787035;30;20488;-92
2022/06/13 09:55:49;;;;;;;7.35;4.68;;;26.10;79.60;;;;;;4754090;30;20085;-84
2022/06/13 09:58:35;;;;;;;9.48;4.57;;;26.30;80.70;;;;;;4784708;30;20054;-86
2022/06/13 10:01:27;;;;;;;9.40;4.10;;;26.70;78.00;;;;;;4792374;30;20053;-84
2022/06/13 10:04:16;;;;;;;8.18;4.38;;;26.80;78.30;;;;;;4788384;30;20035;-92
2022/06/13 10:06:58;;;;;;;8.13;4.13;;;26.90;76.80;;;;;;4785329;30;20127;-83
2022/06/13 10:10:01;;;;;;;7.53;4.32;;;26.90;76.30;;;;;;4768329;30;20031;-83
2022/06/13 10:12:51;;;;;;;6.82;3.72;;;26.90;75.90;;;;;;4766173;30;20032;-95
2022/06/13 10:15:50;;;;;;;6.32;3.72;;;26.90;75.20;;;;;;4782506;30;20019;-91
2022/06/13 10:18:55;;;;;;;7.45;3.50;;;28.50;76.00;;;;;;4780168;30;20042;-94
2022/06/13 10:21:41;;;;;;;8.38;4.05;;;27.30;74.10;;;;;;4747429;30;20067;-96
2022/06/13 10:24:27;;;;;;;9.45;3.72;;;27.40;72.70;;;;;;4744361;30;20032;-94
2022/06/13 10:27:52;;;;;;;7.93;3.88;;;27.30;71.40;;;;;;4751857;30;20036;-86
2022/06/13 10:31:03;;;;;;;7.25;4.13;;;28.60;73.20;;;;;;4748157;30;20036;-86
2022/06/13 10:34:00;;;;;;;6.93;4.15;;;27.70;72.10;;;;;;4763176;29;20092;-87
2022/06/13 10:37:03;;;;;;;7.65;3.83;;;27.40;71.50;;;;;;4764297;30;20036;-85
2022/06/13 10:39:31;;;;;;;10.02;4.45;;;27.60;70.80;;;;;;4789269;24;20034;-83
2022/06/13 10:42:15;;;;;;;9.00;4.20;;;27.50;71.30;;;;;;4777542;30;20055;-87
2022/06/13 10:44:54;;;;;;;8.20;3.47;;;27.80;70.80;;;;;;4779157;30;20044;-95
2022/06/13 10:47:39;;;;;;;6.70;3.83;;;27.90;69.50;;;;;;4778006;30;20036;-83
2022/06/13 10:50:28;;;;;;;9.88;3.88;;;28.50;70.10;;;;;;4780512;30;20235;-91
2022/06/13 10:53:21;;;;;;;6.55;3.88;;;28.50;68.30;;;;;;4781635;30;20031;-83
2022/06/13 10:56:30;;;;;;;7.65;4.10;;;28.80;67.30;;;;;;4782928;30;20099;-94
2022/06/13 10:58:58;;;;;;;9.52;4.40;;;29.40;68.20;;;;;;4780745;30;20043;-84
2022/06/13 11:01:50;;;;;;;6.43;3.90;;;29.00;65.90;;;;;;4780487;30;20024;-89
2022/06/13 11:04:30;;;;;;;6.53;4.00;;;29.80;67.40;;;;;;4779653;30;20039;-92
2022/06/13 11:07:01;;;;;;;6.90;3.60;;;29.30;65.70;;;;;;4757587;30;20016;-90
2022/06/13 11:09:37;;;;;;;6.32;4.07;;;29.20;65.70;;;;;;4757297;30;20606;-83
2022/06/13 11:12:18;;;;;;;6.50;4.05;;;29.20;65.30;;;;;;4757185;30;20183;-84
2022/06/13 11:24:00;;;;;;;8.02;4.15;;;29.90;62.60;;;;;;4755759;30;20766;-82
2022/06/13 11:29:20;;;;;;;6.45;4.10;;;30.40;62.30;;;;;;4780659;24;20095;-85
2022/06/13 11:31:53;;;;;;;8.27;4.22;;;30.40;62.80;;;;;;4739987;30;20076;-88
2022/06/13 11:34:39;;;;;;;;;;;30.80;60.60;;;;;;4750502;30;20044;-85
2022/06/13 11:37:05;;;;;;;6.43;3.58;;;31.20;60.20;;;;;;4745275;30;19948;-83
2022/06/13 11:39:37;;;;;;;6.07;3.97;;;31.50;60.20;;;;;;4744071;30;20067;-82
2022/06/13 11:42:12;;;;;;;6.38;3.88;;;31.50;60.10;;;;;;4745862;30;20135;-91
2022/06/13 11:44:45;;;;;;;5.68;3.58;;;31.50;59.60;;;;;;4741960;30;20557;-81
2022/06/13 11:47:11;;;;;;;;;;;31.80;58.30;;;;;;4742511;30;20028;-88
2022/06/13 11:49:43;;;;;;;6.28;3.80;;;32.00;58.30;;;;;;4741303;30;20179;-94
2022/06/13 11:52:11;;;;;;;6.60;3.50;;;32.70;57.10;;;;;;4741707;30;20125;-87
2022/06/13 11:54:46;;;;;;;5.93;3.65;;;33.00;57.10;;;;;;4749079;30;20016;-85
2022/06/13 11:57:18;;;;;;;5.10;3.45;;;33.10;56.10;;;;;;4747146;30;20127;-86
2022/06/13 12:00:12;;;;;;;6.90;3.70;;;33.10;55.40;;;;;;4750221;30;20028;-83
2022/06/13 12:03:18;;;;;;;6.28;3.63;;;33.00;54.30;;;;;;4760960;30;20040;-83
2022/06/13 12:06:17;;;;;;;6.43;3.60;;;33.40;54.30;;;;;;4758616;30;20123;-82
2022/06/13 12:08:50;;;;;;;6.20;4.03;;;33.70;53.30;;;;;;4753044;30;20024;-94
2022/06/13 12:11:19;;;;;;;5.45;3.35;;;34.10;52.10;;;;;;4752910;30;20094;-84
2022/06/13 12:13:50;;;;;;;5.93;3.45;;;34.10;52.80;;;;;;4747499;30;20036;-85
2022/06/13 12:16:51;;;;;;;5.70;3.60;;;34.80;52.40;;;;;;4742362;30;20032;-87
2022/06/13 12:19:39;;;;;;;7.50;3.72;;;33.70;51.70;;;;;;4706133;30;20148;-84
2022/06/13 12:22:27;;;;;;;6.13;3.50;;;33.40;52.40;;;;;;4705399;30;20049;-86
2022/06/13 12:25:02;;;;;;;5.35;3.15;;;34.00;52.30;;;;;;4709572;30;20037;-91
2022/06/13 12:27:50;;;;;;;5.80;3.20;;;34.00;50.70;;;;;;4708522;30;20064;-80
2022/06/13 12:30:31;;;;;;;5.43;3.20;;;34.10;50.30;;;;;;4691353;30;20053;-86
2022/06/13 12:33:27;;;;;;;5.32;3.33;;;34.30;49.70;;;;;;4710471;30;20125;-83
2022/06/13 12:36:22;;;;;;;5.38;3.35;;;34.40;50.20;;;;;;4706213;30;20041;-83
2022/06/13 12:39:03;;;;;;;4.50;2.90;;;34.40;49.60;;;;;;4706936;30;20660;-87
2022/06/13 12:41:56;;;;;;;6.45;3.30;;;34.30;49.00;;;;;;4703633;30;20044;-94
2022/06/13 12:44:53;;;;;;;5.95;3.38;;;34.40;49.30;;;;;;4704043;30;20681;-95
2022/06/13 12:47:43;;;;;;;5.93;3.47;;;34.20;49.30;;;;;;4704181;30;20033;-85
2022/06/13 12:50:33;;;;;;;6.43;3.70;;;34.50;49.20;;;;;;4705427;30;20042;-84
2022/06/13 12:53:14;;;;;;;5.90;3.53;;;34.60;49.30;;;;;;4690075;30;20021;-84
2022/06/13 12:55:58;;;;;;;6.68;3.50;;;34.70;49.20;;;;;;4711508;30;20078;-88
2022/06/13 12:59:10;;;;;;;5.20;3.22;;;34.50;48.50;;;;;;4746145;30;20156;-89
2022/06/13 13:02:00;;;;;;;6.72;3.45;;;37.00;50.30;;;;;;4676590;30;20053;-85
2022/06/13 13:04:37;;;;;;;4.88;3.20;;;34.90;47.60;;;;;;4679021;30;20049;-84
2022/06/13 13:07:34;;;;;;;6.13;3.72;;;34.80;48.20;;;;;;4671343;30;20069;-84
2022/06/13 13:10:30;;;;;;;5.68;3.22;;;35.80;48.60;;;;;;4671325;30;20034;-88
2022/06/13 13:13:09;;;;;;;5.47;3.45;;;35.40;46.80;;;;;;4668448;30;20412;-83
2022/06/13 13:16:00;;;;;;;10.32;5.22;;;34.60;47.00;;;;;;4653809;30;20487;-88
2022/06/13 13:18:43;;;;;;;7.60;4.20;;;34.80;47.10;;;;;;4616537;30;20059;-89
2022/06/13 13:21:11;;;;;;;5.07;3.35;;;35.00;48.10;;;;;;4616936;30;20039;-87
2022/06/13 13:23:58;;;;;;;6.32;3.85;;;33.00;45.50;;;;;;4617825;30;20051;-82
2022/06/13 13:26:49;;;;;;;6.65;3.60;;;35.20;46.90;;;;;;4618178;30;20191;-90
2022/06/13 13:29:48;;;;;;;4.85;3.10;;;35.10;46.70;;;;;;4617337;30;20047;-87
2022/06/13 13:32:50;;;;;;;6.35;3.65;;;35.20;46.70;;;;;;4617745;31;20059;-84
2022/06/13 13:35:32;;;;;;;5.53;3.40;;;35.20;46.80;;;;;;4617314;30;20611;-85
2022/06/13 13:38:20;;;;;;;7.87;4.13;;;34.90;46.90;;;;;;4629941;30;20111;-81
2022/06/13 13:41:00;;;;;;;7.82;3.55;;;35.00;47.40;;;;;;4692117;30;20121;-89
2022/06/13 13:43:32;;;;;;;7.28;3.90;;;35.20;46.60;;;;;;4687856;30;20046;-90
2022/06/13 13:47:05;;;;;;;6.35;3.63;;;34.80;47.30;;;;;;4689852;30;20036;-94
2022/06/13 13:49:33;;;;;;;;;;;34.90;46.50;;;;;;4658544;30;20038;-89
2022/06/13 13:52:09;;;;;;;5.72;3.35;;;35.10;46.30;;;;;;4654185;30;19916;-95
2022/06/13 13:54:43;;;;;;;6.13;3.80;;;35.00;46.60;;;;;;4658076;30;20044;-86
2022/06/13 13:57:14;;;;;;;6.70;3.17;;;35.10;46.00;;;;;;4658889;30;20128;-90
2022/06/13 13:59:45;;;;;;;5.22;2.97;;;35.10;47.20;;;;;;4661711;30;20123;-83
2022/06/13 14:02:24;;;;;;;5.72;3.30;;;35.60;45.90;;;;;;4650641;30;20046;-88
2022/06/13 14:05:10;;;;;;;6.68;3.70;;;35.20;45.80;;;;;;4661725;30;20525;-87
2022/06/13 14:08:08;;;;;;;5.82;3.97;;;34.80;46.30;;;;;;4661149;30;20068;-94
2022/06/13 14:10:40;;;;;;;5.65;3.38;;;35.30;46.40;;;;;;4670059;30;20041;-89
2022/06/13 14:13:11;;;;;;;5.35;3.50;;;35.30;45.80;;;;;;4662435;30;20038;-81
2022/06/13 14:15:49;;;;;;;5.30;3.22;;;35.30;46.20;;;;;;4663831;30;20132;-90
2022/06/13 14:18:27;;;;;;;6.60;4.00;;;35.40;46.40;;;;;;4656307;30;20059;-84
2022/06/13 14:20:54;;;;;;;6.05;3.65;;;35.20;46.10;;;;;;4659231;30;20035;-90